Time;durP1;ratioP1;P1;durP2;ratioP2;P2;SDS_P1;SDS_P2;PMS_P1;PMS_P2;Temp;Humidity;BMP_temperature;BMP_pressure;BME280_temperature;BME280_humidity;BME280_pressure;Samples;Min_cycle;Max_cycle;Signal;HPM_P1;HPM_P2
2023/03/20 00:02:23;;;;;;;36.50;23.40;;;8.60;94.80;;;;;;5063455;28;20064;-71
2023/03/20 00:04:50;;;;;;;37.85;22.98;;;8.70;94.70;;;;;;5042180;28;20032;-71
2023/03/20 00:07:17;;;;;;;39.42;24.35;;;8.60;95.10;;;;;;5061053;28;20413;-71
2023/03/20 00:09:45;;;;;;;37.00;22.40;;;8.70;95.10;;;;;;5060040;28;20051;-70
2023/03/20 00:12:21;;;;;;;36.38;21.95;;;8.80;95.30;;;;;;5042624;28;20048;-70
2023/03/20 00:14:49;;;;;;;39.42;23.40;;;8.60;95.30;;;;;;5067348;28;20051;-69
2023/03/20 00:17:19;;;;;;;34.20;22.63;;;8.60;95.70;;;;;;5041644;28;20072;-71
2023/03/20 00:19:46;;;;;;;39.95;22.90;;;8.60;95.80;;;;;;5060653;28;20430;-67
2023/03/20 00:22:14;;;;;;;38.80;23.73;;;8.60;96.00;;;;;;5057467;28;20052;-71
2023/03/20 00:24:41;;;;;;;37.22;24.20;;;8.60;96.20;;;;;;5053544;28;20365;-69
2023/03/20 00:27:13;;;;;;;39.33;24.27;;;8.70;95.90;;;;;;5041221;28;20626;-69
2023/03/20 00:29:40;;;;;;;44.10;24.90;;;8.70;95.90;;;;;;5063462;28;20423;-69
2023/03/20 00:32:11;;;;;;;32.00;19.00;;;8.60;95.60;;;;;;5050456;28;20056;-71
2023/03/20 00:34:39;;;;;;;32.15;20.92;;;8.00;95.40;;;;;;5044604;28;20040;-69
2023/03/20 00:37:08;;;;;;;28.80;18.20;;;7.70;96.40;;;;;;5068903;28;20044;-70
2023/03/20 00:39:35;;;;;;;33.00;18.75;;;7.40;96.50;;;;;;5060663;28;20158;-71
2023/03/20 00:42:05;;;;;;;28.90;18.90;;;7.40;96.70;;;;;;5064276;28;20494;-70
2023/03/20 00:44:33;;;;;;;30.97;18.93;;;7.30;97.20;;;;;;5064273;28;20037;-70
2023/03/20 00:47:03;;;;;;;33.60;17.48;;;7.50;96.90;;;;;;5049595;28;20044;-70
2023/03/20 00:49:33;;;;;;;29.52;19.45;;;7.80;96.40;;;;;;5046437;28;20044;-69
2023/03/20 00:52:19;;;;;;;35.03;19.48;;;7.80;96.50;;;;;;5069431;28;20078;-69
2023/03/20 00:54:46;;;;;;;33.70;19.38;;;8.10;96.40;;;;;;5062144;28;20084;-68
2023/03/20 00:57:21;;;;;;;30.83;19.20;;;8.20;96.40;;;;;;5065607;28;20037;-70
2023/03/20 01:00:05;;;;;;;37.95;20.67;;;8.20;96.60;;;;;;5052752;28;20037;-70
2023/03/20 01:02:33;;;;;;;38.10;22.15;;;8.00;96.90;;;;;;5072284;28;20239;-70
2023/03/20 01:05:01;;;;;;;35.35;21.95;;;8.10;97.60;;;;;;5059043;28;20045;-68
2023/03/20 01:07:28;;;;;;;34.88;21.38;;;8.10;98.00;;;;;;5051912;28;20095;-70
2023/03/20 01:09:55;;;;;;;33.30;21.70;;;8.00;97.90;;;;;;5066983;28;20056;-70
2023/03/20 01:12:22;;;;;;;31.70;20.20;;;7.90;98.30;;;;;;5052444;28;20408;-70
2023/03/20 01:14:54;;;;;;;30.00;20.10;;;8.00;97.90;;;;;;5046612;28;20036;-69
2023/03/20 01:17:23;;;;;;;33.13;20.73;;;8.00;97.30;;;;;;5072314;28;20488;-68
2023/03/20 01:19:51;;;;;;;36.75;21.80;;;7.90;97.60;;;;;;5061009;28;20104;-72
2023/03/20 01:22:18;;;;;;;35.60;24.02;;;7.80;98.50;;;;;;5060588;28;20047;-67
2023/03/20 01:24:46;;;;;;;33.45;21.52;;;7.70;99.80;;;;;;5068062;28;20350;-68
2023/03/20 01:27:18;;;;;;;39.25;24.55;;;7.80;99.80;;;;;;5068913;28;20048;-68
2023/03/20 01:29:46;;;;;;;44.45;27.40;;;7.40;99.90;;;;;;5065468;28;20463;-67
2023/03/20 01:32:16;;;;;;;45.63;27.83;;;7.40;99.90;;;;;;5071569;28;20040;-68
2023/03/20 01:34:43;;;;;;;45.05;26.73;;;7.40;99.90;;;;;;5071476;28;20131;-69
2023/03/20 01:37:15;;;;;;;44.55;28.52;;;7.30;99.90;;;;;;5052941;28;20381;-70
2023/03/20 01:39:43;;;;;;;42.03;27.80;;;7.30;99.90;;;;;;5062802;28;20045;-69
2023/03/20 01:42:14;;;;;;;46.00;27.70;;;7.10;99.90;;;;;;5066843;28;20452;-69
2023/03/20 01:44:42;;;;;;;44.05;27.88;;;7.10;99.90;;;;;;5071500;28;20374;-67
2023/03/20 01:47:22;;;;;;;43.78;26.38;;;6.90;99.90;;;;;;5054501;28;20041;-71
2023/03/20 01:50:01;;;;;;;47.40;28.33;;;7.20;99.90;;;;;;5034246;28;20045;-69
2023/03/20 01:52:29;;;;;;;42.05;26.52;;;7.40;99.90;;;;;;5051990;28;20044;-70
2023/03/20 01:54:56;;;;;;;43.85;26.08;;;7.40;99.90;;;;;;5052133;28;20428;-69
2023/03/20 01:57:24;;;;;;;44.88;26.33;;;7.30;99.90;;;;;;5051296;28;20047;-68
2023/03/20 02:00:18;;;;;;;46.83;27.00;;;7.30;99.90;;;;;;5044780;28;20039;-68
2023/03/20 02:02:46;;;;;;;46.75;28.17;;;6.80;99.90;;;;;;5031614;28;20315;-68
2023/03/20 02:05:18;;;;;;;46.17;27.92;;;6.70;99.90;;;;;;5030140;28;20365;-67
2023/03/20 02:07:53;;;;;;;43.53;26.42;;;6.90;99.90;;;;;;5051566;28;20441;-67
2023/03/20 02:10:21;;;;;;;39.30;24.67;;;7.00;99.90;;;;;;5052193;28;20060;-68
2023/03/20 02:12:48;;;;;;;37.38;23.73;;;7.00;99.90;;;;;;5035220;28;20053;-68
2023/03/20 02:15:17;;;;;;;38.80;25.00;;;7.10;99.90;;;;;;5049456;28;20064;-70
2023/03/20 02:17:44;;;;;;;43.63;26.75;;;7.00;99.90;;;;;;5045508;28;20051;-69
2023/03/20 02:20:48;;;;;;;41.28;26.83;;;6.90;99.90;;;;;;5066468;28;20075;-69
2023/03/20 02:24:03;;;;;;;42.63;27.13;;;7.00;99.90;;;;;;5063705;28;20029;-70
2023/03/20 02:26:36;;;;;;;39.15;25.13;;;7.00;99.90;;;;;;5039102;28;20054;-69
2023/03/20 02:29:24;;;;;;;36.20;24.55;;;7.00;99.90;;;;;;5053390;28;20408;-70
2023/03/20 02:32:28;;;;;;;33.85;21.95;;;7.00;99.90;;;;;;5055416;28;20047;-70
2023/03/20 02:35:04;;;;;;;35.28;21.42;;;6.90;99.90;;;;;;5055975;28;20041;-69
2023/03/20 02:37:58;;;;;;;30.63;21.33;;;6.80;99.90;;;;;;5037907;28;20037;-69
2023/03/20 02:41:04;;;;;;;39.25;21.23;;;6.50;99.90;;;;;;5052155;28;20040;-68
2023/03/20 02:43:42;;;;;;;33.20;20.08;;;6.60;99.90;;;;;;5014220;28;20053;-70
2023/03/20 02:46:44;;;;;;;30.08;19.33;;;6.70;99.90;;;;;;5033183;28;20040;-69
2023/03/20 02:49:20;;;;;;;29.63;19.95;;;6.70;99.90;;;;;;5051172;28;20048;-69
2023/03/20 02:52:05;;;;;;;29.00;19.02;;;6.90;99.90;;;;;;5051035;28;20099;-68
2023/03/20 02:54:52;;;;;;;29.38;19.10;;;7.10;99.90;;;;;;5051014;28;20500;-68
2023/03/20 02:57:33;;;;;;;28.75;19.52;;;6.70;99.90;;;;;;5029601;28;20064;-69
2023/03/20 03:00:18;;;;;;;29.52;18.90;;;6.60;99.90;;;;;;5033000;28;20388;-68
2023/03/20 03:02:57;;;;;;;27.45;18.92;;;6.50;99.90;;;;;;5017086;28;20049;-69
2023/03/20 03:05:36;;;;;;;31.73;20.48;;;6.60;99.90;;;;;;5036786;28;20052;-66
2023/03/20 03:08:05;;;;;;;30.50;18.13;;;6.70;99.90;;;;;;5042467;28;20041;-68
2023/03/20 03:10:42;;;;;;;27.73;18.58;;;6.50;99.90;;;;;;5020968;28;20056;-67
2023/03/20 03:13:15;;;;;;;33.28;18.30;;;6.60;99.90;;;;;;5037835;28;20045;-68
2023/03/20 03:15:47;;;;;;;27.33;17.80;;;6.70;99.90;;;;;;5054617;28;20515;-69
2023/03/20 03:18:20;;;;;;;28.65;18.45;;;6.90;99.90;;;;;;5066557;28;20115;-69
2023/03/20 03:20:51;;;;;;;25.10;17.10;;;6.90;99.90;;;;;;5040632;28;20063;-69
2023/03/20 03:23:45;;;;;;;26.13;16.55;;;7.00;99.90;;;;;;5067886;28;20133;-68
2023/03/20 03:26:36;;;;;;;25.52;15.25;;;7.00;99.90;;;;;;5068772;28;20021;-68
2023/03/20 03:29:11;;;;;;;26.38;16.35;;;7.10;99.90;;;;;;5052511;28;20046;-69
2023/03/20 03:31:39;;;;;;;22.30;16.13;;;7.00;99.90;;;;;;5072749;28;20039;-69
2023/03/20 03:34:14;;;;;;;24.60;16.15;;;6.90;99.90;;;;;;5074119;28;20043;-68
2023/03/20 03:37:10;;;;;;;27.58;16.23;;;7.00;99.90;;;;;;5046243;28;20044;-70
2023/03/20 03:40:04;;;;;;;21.67;15.52;;;6.80;99.90;;;;;;5053790;28;20072;-69
2023/03/20 03:42:48;;;;;;;25.85;15.73;;;6.90;99.90;;;;;;5068834;28;20619;-70
2023/03/20 03:45:23;;;;;;;24.48;15.10;;;6.80;99.90;;;;;;5073269;28;20075;-69
2023/03/20 03:48:00;;;;;;;25.15;15.52;;;6.60;99.90;;;;;;5043169;28;20037;-69
2023/03/20 03:50:40;;;;;;;24.55;16.23;;;6.70;99.90;;;;;;5054798;28;20045;-69
2023/03/20 03:53:10;;;;;;;29.67;16.05;;;6.70;99.90;;;;;;5055432;28;20119;-69
2023/03/20 03:55:40;;;;;;;;;;;6.60;99.90;;;;;;5060197;28;20048;-69
2023/03/20 03:58:39;;;;;;;27.42;16.92;;;6.50;99.90;;;;;;5038986;28;20395;-69
2023/03/20 04:01:10;;;;;;;28.48;17.63;;;6.40;99.90;;;;;;5055967;28;20049;-68
2023/03/20 04:03:47;;;;;;;25.83;16.67;;;6.40;99.90;;;;;;5054581;28;20060;-70
2023/03/20 04:06:16;;;;;;;28.90;16.67;;;6.40;99.90;;;;;;5034410;28;20558;-69
2023/03/20 04:08:44;;;;;;;26.58;17.08;;;6.50;99.90;;;;;;5065288;28;20045;-70
2023/03/20 04:11:25;;;;;;;30.30;17.00;;;6.40;99.90;;;;;;5071746;28;20051;-70
2023/03/20 04:13:52;;;;;;;27.92;17.55;;;6.50;99.90;;;;;;5051876;28;20476;-69
2023/03/20 04:16:22;;;;;;;27.80;17.30;;;6.60;99.90;;;;;;5072927;28;20476;-69
2023/03/20 04:18:49;;;;;;;27.70;17.63;;;6.60;99.90;;;;;;5051889;28;20519;-70
2023/03/20 04:21:17;;;;;;;21.95;16.77;;;6.60;99.90;;;;;;5044472;28;20040;-69
2023/03/20 04:23:45;;;;;;;22.55;15.85;;;6.60;99.90;;;;;;5050757;28;20437;-69
2023/03/20 04:26:13;;;;;;;23.88;15.38;;;6.50;99.90;;;;;;5052544;28;20036;-68
2023/03/20 04:28:40;;;;;;;24.20;16.73;;;6.60;99.90;;;;;;5060662;28;20045;-68
2023/03/20 04:31:07;;;;;;;27.70;17.08;;;6.30;99.90;;;;;;5052935;28;20071;-69
2023/03/20 04:33:35;;;;;;;29.02;17.10;;;6.30;99.90;;;;;;5065208;28;20051;-68
2023/03/20 04:36:02;;;;;;;21.88;16.25;;;6.20;99.90;;;;;;5049662;28;20037;-69
2023/03/20 04:38:30;;;;;;;23.08;16.30;;;6.30;99.90;;;;;;5053630;28;20041;-69
2023/03/20 04:40:57;;;;;;;24.15;16.08;;;6.30;99.90;;;;;;5055162;28;20033;-69
2023/03/20 04:43:24;;;;;;;24.83;16.38;;;6.30;99.90;;;;;;5053479;28;20056;-70
2023/03/20 04:45:52;;;;;;;23.77;16.65;;;6.20;99.90;;;;;;5041908;28;20040;-70
2023/03/20 04:48:19;;;;;;;21.05;15.13;;;6.00;99.90;;;;;;5042887;28;20591;-70
2023/03/20 04:50:47;;;;;;;21.25;15.52;;;6.00;99.90;;;;;;5037872;28;20040;-69
2023/03/20 04:53:15;;;;;;;26.30;15.50;;;6.00;99.90;;;;;;5042800;28;20103;-69
2023/03/20 04:55:44;;;;;;;20.25;14.15;;;6.00;99.90;;;;;;5035866;28;20044;-71
2023/03/20 04:58:12;;;;;;;17.15;13.02;;;6.10;99.90;;;;;;5045535;28;20047;-70
2023/03/20 05:00:39;;;;;;;19.75;12.77;;;6.10;99.90;;;;;;5071994;28;20033;-70
2023/03/20 05:03:06;;;;;;;17.75;12.38;;;5.80;99.90;;;;;;5071701;28;20048;-71
2023/03/20 05:05:36;;;;;;;19.63;13.00;;;6.00;99.90;;;;;;5052031;28;20036;-70
2023/03/20 05:08:05;;;;;;;23.10;13.57;;;5.90;99.90;;;;;;5052619;28;20514;-71
2023/03/20 05:10:32;;;;;;;21.73;13.77;;;6.20;99.90;;;;;;5071239;28;20041;-69
2023/03/20 05:13:00;;;;;;;23.13;14.68;;;6.30;99.90;;;;;;5053624;28;20382;-70
2023/03/20 05:15:27;;;;;;;27.25;15.00;;;6.50;99.90;;;;;;5031820;28;20409;-69
2023/03/20 05:18:10;;;;;;;31.10;17.40;;;6.60;99.90;;;;;;5035513;28;20136;-68
2023/03/20 05:20:55;;;;;;;;;;;6.70;99.90;;;;;;5023153;28;20430;-68
2023/03/20 05:23:26;;;;;;;32.28;17.23;;;6.60;99.90;;;;;;5019643;28;20010;-68
2023/03/20 05:26:12;;;;;;;30.40;17.10;;;6.70;99.90;;;;;;5025226;28;20033;-70
2023/03/20 05:28:41;;;;;;;;;;;6.70;99.90;;;;;;5032604;28;20060;-69
2023/03/20 05:31:09;;;;;;;24.30;14.48;;;6.70;99.90;;;;;;5053570;28;19921;-69
2023/03/20 05:33:36;;;;;;;28.88;17.73;;;6.70;99.90;;;;;;5035686;28;20135;-69
2023/03/20 05:36:05;;;;;;;27.83;16.88;;;6.80;99.90;;;;;;5048816;28;20078;-71
2023/03/20 05:38:32;;;;;;;27.55;17.83;;;6.90;99.90;;;;;;5070768;28;20472;-70
2023/03/20 05:41:00;;;;;;;26.48;15.57;;;7.10;99.90;;;;;;5069164;28;20082;-72
2023/03/20 05:43:28;;;;;;;27.73;15.32;;;7.10;99.90;;;;;;5034272;28;20146;-70
2023/03/20 05:45:55;;;;;;;22.58;14.00;;;7.10;99.90;;;;;;5063938;28;20537;-70
2023/03/20 05:48:23;;;;;;;23.17;15.10;;;7.20;99.90;;;;;;5023868;28;20044;-69
2023/03/20 05:50:50;;;;;;;24.13;16.20;;;7.40;99.90;;;;;;5040121;28;20056;-68
2023/03/20 05:53:18;;;;;;;27.80;16.95;;;7.40;99.90;;;;;;5056376;28;20047;-70
2023/03/20 05:55:45;;;;;;;25.10;16.00;;;7.40;99.90;;;;;;5064798;28;20037;-71
2023/03/20 05:58:12;;;;;;;21.08;14.77;;;7.40;99.90;;;;;;5063286;28;20115;-71
2023/03/20 06:00:40;;;;;;;104.78;58.50;;;7.60;99.90;;;;;;5051091;28;20041;-68
2023/03/20 06:03:07;;;;;;;110.65;58.88;;;7.60;99.90;;;;;;5051292;28;20044;-70
2023/03/20 06:05:35;;;;;;;106.53;60.53;;;7.60;99.90;;;;;;5049058;28;20057;-70
2023/03/20 06:08:03;;;;;;;121.35;66.20;;;7.70;99.90;;;;;;5053537;28;20384;-70
2023/03/20 06:10:31;;;;;;;72.68;42.80;;;8.00;99.90;;;;;;5059056;28;20501;-69
2023/03/20 06:12:59;;;;;;;27.13;17.80;;;8.10;99.90;;;;;;5068246;28;20365;-71
2023/03/20 06:15:27;;;;;;;23.08;15.45;;;7.70;99.90;;;;;;5067703;28;20056;-68
2023/03/20 06:17:55;;;;;;;22.08;14.63;;;7.60;99.90;;;;;;5051375;28;20059;-70
2023/03/20 06:20:23;;;;;;;27.85;15.18;;;7.60;99.90;;;;;;5040949;28;20068;-70
2023/03/20 06:22:50;;;;;;;22.67;15.45;;;7.80;99.90;;;;;;5047450;28;20059;-69
2023/03/20 06:25:18;;;;;;;23.00;15.75;;;7.90;99.90;;;;;;5050421;28;20162;-69
2023/03/20 06:27:47;;;;;;;23.42;15.32;;;8.00;99.90;;;;;;5042976;28;20047;-71
2023/03/20 06:30:15;;;;;;;23.00;14.82;;;8.20;99.90;;;;;;5055982;28;20119;-69
2023/03/20 06:32:43;;;;;;;24.00;15.27;;;8.20;99.90;;;;;;5063251;28;20037;-73
2023/03/20 06:35:12;;;;;;;25.52;15.77;;;7.90;99.90;;;;;;5054887;28;20049;-72
2023/03/20 06:37:40;;;;;;;28.10;15.02;;;8.00;99.90;;;;;;5050519;28;20043;-68
2023/03/20 06:40:09;;;;;;;28.58;15.00;;;8.40;99.90;;;;;;5026894;28;20044;-71
2023/03/20 06:42:36;;;;;;;29.67;15.65;;;8.60;99.90;;;;;;5055837;28;20040;-71
2023/03/20 06:45:05;;;;;;;22.27;16.02;;;8.70;99.90;;;;;;5062260;23;20134;-71
2023/03/20 06:47:32;;;;;;;25.30;15.25;;;8.90;99.90;;;;;;5048203;28;20747;-71
2023/03/20 06:50:00;;;;;;;24.38;15.10;;;8.90;99.90;;;;;;5062240;28;20040;-72
2023/03/20 06:52:27;;;;;;;27.92;16.63;;;9.00;99.90;;;;;;5068965;28;20039;-71
2023/03/20 06:54:55;;;;;;;23.80;15.88;;;9.00;99.90;;;;;;5042133;28;20045;-71
2023/03/20 06:57:23;;;;;;;25.27;16.35;;;8.90;99.90;;;;;;5049875;28;20032;-71
2023/03/20 06:59:50;;;;;;;30.40;16.52;;;8.90;99.90;;;;;;5052942;28;20052;-71
2023/03/20 07:02:17;;;;;;;30.67;17.08;;;9.00;99.90;;;;;;5052732;28;20079;-72
2023/03/20 07:04:45;;;;;;;26.88;17.05;;;9.10;99.90;;;;;;5051774;28;20070;-68
2023/03/20 07:07:13;;;;;;;71.00;38.00;;;8.90;99.90;;;;;;5045081;28;20099;-70
2023/03/20 07:09:40;;;;;;;49.53;26.98;;;9.40;99.90;;;;;;5068154;28;20048;-72
2023/03/20 07:12:17;;;;;;;43.13;24.88;;;9.10;99.90;;;;;;5048624;28;20044;-72
2023/03/20 07:14:44;;;;;;;32.67;21.83;;;9.10;99.90;;;;;;5034692;28;20389;-71
2023/03/20 07:17:12;;;;;;;32.10;18.63;;;9.20;99.90;;;;;;5046898;28;20053;-70
2023/03/20 07:19:40;;;;;;;26.65;16.70;;;9.20;99.30;;;;;;5065234;28;20075;-70
2023/03/20 07:22:30;;;;;;;29.73;17.10;;;9.30;98.60;;;;;;5049643;28;20036;-71
2023/03/20 07:24:57;;;;;;;24.30;16.58;;;9.40;98.50;;;;;;5039424;28;20056;-70
2023/03/20 07:27:25;;;;;;;28.23;17.30;;;9.40;98.10;;;;;;5033687;28;20037;-71
2023/03/20 07:29:52;;;;;;;29.83;18.35;;;9.20;98.00;;;;;;5069275;28;20036;-71
2023/03/20 07:32:20;;;;;;;31.00;17.75;;;9.30;98.40;;;;;;5071843;28;20037;-70
2023/03/20 07:34:48;;;;;;;32.72;19.00;;;9.40;98.50;;;;;;5053650;28;20068;-70
2023/03/20 07:37:16;;;;;;;31.08;19.55;;;9.50;98.50;;;;;;5054388;28;20386;-70
2023/03/20 07:39:43;;;;;;;31.63;17.40;;;9.60;98.30;;;;;;5070159;28;20122;-69
2023/03/20 07:42:12;;;;;;;30.73;18.48;;;9.70;97.70;;;;;;5068845;28;20446;-69
2023/03/20 07:44:39;;;;;;;29.40;18.58;;;9.80;97.80;;;;;;5052459;28;20050;-69
2023/03/20 07:47:07;;;;;;;27.58;16.92;;;9.80;97.50;;;;;;5067891;28;20040;-70
2023/03/20 07:49:34;;;;;;;30.90;18.58;;;9.90;97.70;;;;;;5056158;28;20040;-70
2023/03/20 07:52:02;;;;;;;30.90;19.25;;;10.00;97.80;;;;;;5071047;28;20072;-71
2023/03/20 07:54:29;;;;;;;29.52;18.35;;;10.20;97.40;;;;;;5030704;28;20045;-70
2023/03/20 07:56:56;;;;;;;35.03;19.20;;;10.10;97.10;;;;;;5049094;28;20451;-70
2023/03/20 07:59:24;;;;;;;28.27;18.40;;;10.20;97.30;;;;;;5066580;28;20037;-69
2023/03/20 08:01:51;;;;;;;32.33;19.30;;;10.20;97.20;;;;;;5067569;28;20129;-71
2023/03/20 08:04:21;;;;;;;29.63;17.58;;;10.30;96.90;;;;;;5039210;28;20049;-71
2023/03/20 08:06:49;;;;;;;29.13;18.35;;;10.40;96.20;;;;;;5072843;28;20503;-71
2023/03/20 08:09:19;;;;;;;28.80;17.77;;;10.50;96.60;;;;;;5072863;28;20064;-70
2023/03/20 08:11:47;;;;;;;31.50;18.17;;;10.60;95.20;;;;;;5054920;28;20072;-70
2023/03/20 08:14:14;;;;;;;35.95;18.50;;;10.60;95.40;;;;;;5073117;28;20288;-71
2023/03/20 08:16:41;;;;;;;27.85;17.80;;;10.70;95.20;;;;;;5072104;28;20112;-71
2023/03/20 08:19:09;;;;;;;25.13;17.42;;;11.10;95.00;;;;;;5055470;28;20036;-70
2023/03/20 08:21:36;;;;;;;29.15;17.95;;;11.30;94.10;;;;;;5071000;28;20047;-70
2023/03/20 08:24:04;;;;;;;27.77;17.15;;;11.60;93.80;;;;;;5054593;28;20045;-70
2023/03/20 08:26:31;;;;;;;30.63;17.80;;;11.60;92.90;;;;;;5041403;28;20041;-71
2023/03/20 08:29:18;;;;;;;35.70;18.80;;;11.90;92.10;;;;;;5071891;28;20067;-72
2023/03/20 08:31:45;;;;;;;29.48;16.50;;;12.00;91.50;;;;;;5072902;28;20091;-72
2023/03/20 08:34:12;;;;;;;37.03;17.48;;;12.20;90.60;;;;;;5054497;28;20144;-71
2023/03/20 08:36:40;;;;;;;28.38;16.48;;;12.10;90.00;;;;;;5045348;28;20369;-71
2023/03/20 08:39:08;;;;;;;27.45;16.75;;;12.10;89.80;;;;;;5052368;28;20105;-71
2023/03/20 08:41:40;;;;;;;23.23;15.40;;;12.40;88.70;;;;;;5062705;28;20044;-71
2023/03/20 08:44:08;;;;;;;32.85;15.95;;;12.60;86.80;;;;;;5052833;28;20409;-69
2023/03/20 08:46:35;;;;;;;20.17;13.32;;;12.50;86.00;;;;;;5034956;28;20045;-70
2023/03/20 08:49:04;;;;;;;20.58;12.43;;;12.60;83.50;;;;;;5053604;28;20123;-71
2023/03/20 08:51:32;;;;;;;26.25;13.02;;;12.60;81.60;;;;;;5059740;28;20621;-71
2023/03/20 08:54:00;;;;;;;20.40;12.07;;;12.60;81.80;;;;;;5048066;28;20087;-71
2023/03/20 08:56:28;;;;;;;21.10;13.00;;;13.00;82.10;;;;;;5018599;28;20056;-70
2023/03/20 08:58:56;;;;;;;22.45;14.38;;;13.30;82.40;;;;;;5018381;28;20055;-71
2023/03/20 09:01:23;;;;;;;25.20;13.43;;;13.50;81.00;;;;;;5025267;28;20488;-72
2023/03/20 09:03:58;;;;;;;21.25;12.60;;;13.20;81.00;;;;;;5034531;28;20037;-71
2023/03/20 09:06:25;;;;;;;20.25;13.00;;;13.40;79.30;;;;;;5030503;28;20056;-70
2023/03/20 09:08:55;;;;;;;24.58;12.85;;;13.30;78.50;;;;;;5041258;28;20044;-71
2023/03/20 09:11:23;;;;;;;21.85;12.48;;;13.10;80.30;;;;;;5054387;28;20050;-71
2023/03/20 09:13:50;;;;;;;22.20;13.30;;;13.40;79.60;;;;;;5035291;28;20045;-71
2023/03/20 09:16:18;;;;;;;18.80;12.20;;;13.70;78.90;;;;;;5066357;28;20121;-69
2023/03/20 09:18:46;;;;;;;18.55;10.52;;;14.00;78.50;;;;;;5054455;28;20044;-71
2023/03/20 09:21:13;;;;;;;16.25;9.80;;;13.80;77.10;;;;;;5058317;28;20248;-70
2023/03/20 09:23:41;;;;;;;17.70;9.93;;;14.00;76.40;;;;;;5063612;28;20128;-69
2023/03/20 09:26:08;;;;;;;14.98;9.35;;;14.20;75.00;;;;;;5067380;28;20493;-70
2023/03/20 09:28:35;;;;;;;14.10;8.82;;;14.00;74.90;;;;;;5070839;28;20047;-71
2023/03/20 09:31:03;;;;;;;12.65;7.35;;;14.30;75.10;;;;;;5051094;28;20043;-70
2023/03/20 09:33:30;;;;;;;15.45;8.50;;;14.50;73.90;;;;;;5051887;28;20076;-71
2023/03/20 09:35:57;;;;;;;12.15;7.53;;;14.70;72.10;;;;;;5055965;28;20036;-71
2023/03/20 09:38:25;;;;;;;15.35;8.80;;;14.70;71.20;;;;;;5071441;28;20148;-71
2023/03/20 09:41:00;;;;;;;14.10;7.93;;;14.90;70.30;;;;;;5047950;28;20041;-70
2023/03/20 09:43:56;;;;;;;10.88;6.25;;;15.00;69.90;;;;;;5063963;28;20063;-69
2023/03/20 09:46:54;;;;;;;13.40;7.45;;;15.10;69.30;;;;;;5040643;28;20508;-71
2023/03/20 09:50:03;;;;;;;15.10;7.45;;;15.60;70.00;;;;;;5062538;28;20131;-70
2023/03/20 09:53:08;;;;;;;14.35;7.60;;;15.40;68.10;;;;;;5070657;28;20048;-70
2023/03/20 09:55:38;;;;;;;14.68;7.95;;;15.60;67.80;;;;;;5057862;28;20045;-70
2023/03/20 09:58:32;;;;;;;11.82;7.82;;;15.60;67.70;;;;;;5071593;28;20393;-70
2023/03/20 10:01:04;;;;;;;13.82;7.10;;;15.80;67.90;;;;;;5058419;28;20044;-70
2023/03/20 10:03:55;;;;;;;11.85;6.72;;;15.50;66.80;;;;;;5055962;28;20045;-71
2023/03/20 10:06:22;;;;;;;10.65;7.00;;;15.90;66.10;;;;;;5051775;28;20064;-70
2023/03/20 10:08:50;;;;;;;11.27;7.00;;;16.20;65.90;;;;;;5051598;28;20048;-70
2023/03/20 10:11:43;;;;;;;11.80;6.68;;;16.30;64.90;;;;;;5051731;28;20056;-70
2023/03/20 10:14:48;;;;;;;11.75;6.63;;;16.50;65.30;;;;;;5051768;28;20045;-70
2023/03/20 10:17:33;;;;;;;14.43;7.20;;;16.70;65.30;;;;;;5059798;28;20052;-69
2023/03/20 10:20:12;;;;;;;10.45;5.45;;;16.80;63.60;;;;;;5070530;28;20048;-68
2023/03/20 10:22:48;;;;;;;13.45;6.95;;;16.90;63.10;;;;;;5071065;28;20060;-70
2023/03/20 10:25:37;;;;;;;15.52;7.25;;;16.80;62.40;;;;;;5070267;28;20427;-70
2023/03/20 10:28:19;;;;;;;10.80;6.82;;;16.60;62.80;;;;;;5035343;28;20041;-70
2023/03/20 10:31:01;;;;;;;14.02;6.97;;;16.60;63.70;;;;;;5033650;28;20481;-71
2023/03/20 10:33:56;;;;;;;14.00;6.45;;;16.80;62.80;;;;;;5042820;28;20048;-69
2023/03/20 10:36:45;;;;;;;9.88;6.43;;;17.00;62.30;;;;;;5052558;28;20052;-70
2023/03/20 10:39:27;;;;;;;10.45;6.53;;;17.10;62.80;;;;;;5070119;28;20064;-70
2023/03/20 10:42:00;;;;;;;10.82;6.18;;;17.40;63.20;;;;;;5070407;28;20492;-69
2023/03/20 10:44:41;;;;;;;11.32;6.82;;;17.60;62.40;;;;;;5032681;28;20041;-72
2023/03/20 10:47:15;;;;;;;17.63;9.00;;;17.90;62.60;;;;;;5048224;28;20068;-74
2023/03/20 10:49:47;;;;;;;18.52;10.57;;;17.80;63.70;;;;;;5033305;28;20099;-71
2023/03/20 10:52:35;;;;;;;17.58;9.73;;;18.20;66.70;;;;;;5068571;28;20567;-70
2023/03/20 10:55:18;;;;;;;13.60;7.25;;;18.10;64.20;;;;;;5041876;28;20051;-70
2023/03/20 10:57:51;;;;;;;13.90;7.55;;;17.90;62.40;;;;;;5040260;28;20039;-72
2023/03/20 11:00:23;;;;;;;13.95;8.45;;;18.10;64.70;;;;;;5021729;28;20057;-72
2023/03/20 11:02:52;;;;;;;12.90;8.55;;;17.90;66.60;;;;;;5025852;28;20044;-72
2023/03/20 11:05:32;;;;;;;9.80;6.63;;;18.50;64.10;;;;;;5052142;28;20055;-70
2023/03/20 11:08:07;;;;;;;10.00;6.70;;;18.90;60.60;;;;;;5036232;28;20044;-73
2023/03/20 11:10:36;;;;;;;11.98;6.75;;;18.60;59.90;;;;;;5070342;28;20054;-75
2023/03/20 11:13:28;;;;;;;19.42;7.50;;;19.20;60.80;;;;;;5069724;28;20542;-70
2023/03/20 11:16:06;;;;;;;10.02;6.38;;;20.60;58.00;;;;;;5060975;28;20049;-69
2023/03/20 11:18:33;;;;;;;11.70;6.50;;;20.70;56.30;;;;;;5030185;28;20459;-70
2023/03/20 11:21:01;;;;;;;10.45;6.50;;;20.50;57.70;;;;;;5046338;28;20047;-68
2023/03/20 11:23:33;;;;;;;11.65;6.85;;;20.90;56.70;;;;;;5063884;28;20037;-70
2023/03/20 11:26:05;;;;;;;8.90;6.30;;;20.90;57.10;;;;;;5052075;28;20431;-71
2023/03/20 11:28:36;;;;;;;13.52;6.22;;;21.00;56.10;;;;;;5028577;28;20083;-71
2023/03/20 11:31:12;;;;;;;10.93;5.78;;;20.80;53.80;;;;;;5045985;28;20056;-72
2023/03/20 11:33:44;;;;;;;9.90;5.38;;;20.20;54.20;;;;;;5051164;28;20036;-73
2023/03/20 11:36:29;;;;;;;12.38;5.82;;;19.80;54.20;;;;;;5021527;28;20136;-71
2023/03/20 11:39:15;;;;;;;9.18;5.50;;;20.20;54.20;;;;;;5045634;28;20118;-70
2023/03/20 11:41:50;;;;;;;11.32;5.72;;;20.40;52.70;;;;;;5024950;28;20132;-69
2023/03/20 11:44:35;;;;;;;11.30;5.40;;;20.50;52.10;;;;;;5069415;28;20056;-70
2023/03/20 11:47:13;;;;;;;7.47;5.20;;;20.30;51.70;;;;;;5070001;28;20133;-73
2023/03/20 11:49:59;;;;;;;10.02;5.72;;;20.50;53.10;;;;;;5069296;28;20047;-70
2023/03/20 11:52:35;;;;;;;8.25;5.75;;;20.90;54.20;;;;;;5058510;28;20400;-70
2023/03/20 11:55:06;;;;;;;9.90;5.63;;;21.00;53.40;;;;;;5069224;28;20048;-71
2023/03/20 11:57:36;;;;;;;7.65;5.57;;;20.70;52.70;;;;;;5056142;28;20072;-72
2023/03/20 12:00:10;;;;;;;8.95;5.45;;;20.60;52.90;;;;;;5074506;28;20072;-68
2023/03/20 12:02:40;;;;;;;11.00;5.00;;;20.10;53.40;;;;;;5061061;28;20598;-77
2023/03/20 12:05:38;;;;;;;;;;;20.40;53.60;;;;;;5027211;28;20488;-74
2023/03/20 12:08:16;;;;;;;8.95;5.05;;;20.60;54.30;;;;;;5020189;28;19931;-70
2023/03/20 12:11:12;;;;;;;8.18;5.22;;;20.90;53.40;;;;;;5064144;28;20044;-72
2023/03/20 12:13:43;;;;;;;7.97;5.20;;;20.60;53.80;;;;;;5026914;28;20113;-69
2023/03/20 12:16:14;;;;;;;8.05;4.85;;;21.00;53.00;;;;;;5038942;28;20412;-69
2023/03/20 12:18:51;;;;;;;7.53;4.68;;;21.20;51.60;;;;;;5059825;28;20430;-71
2023/03/20 12:21:37;;;;;;;8.90;5.22;;;21.60;51.20;;;;;;5069232;28;20043;-69
2023/03/20 12:24:10;;;;;;;12.95;5.45;;;22.60;50.30;;;;;;5068313;28;20507;-70
2023/03/20 12:27:21;;;;;;;11.02;5.43;;;23.20;49.50;;;;;;5071879;28;20110;-77
2023/03/20 12:29:59;;;;;;;11.20;5.95;;;22.80;49.50;;;;;;5035897;28;20049;-70
2023/03/20 12:32:51;;;;;;;8.90;5.35;;;23.50;49.30;;;;;;5066319;28;20384;-69
2023/03/20 12:35:23;;;;;;;11.05;5.78;;;24.20;48.40;;;;;;5045455;28;20049;-70
2023/03/20 12:37:51;;;;;;;8.27;5.05;;;25.00;47.90;;;;;;5061993;28;20051;-71
2023/03/20 12:40:24;;;;;;;9.40;5.57;;;24.30;46.10;;;;;;5071610;28;20033;-72
2023/03/20 12:43:00;;;;;;;8.85;5.35;;;24.00;46.40;;;;;;5071886;28;20507;-71
2023/03/20 12:45:42;;;;;;;9.35;4.93;;;25.10;45.30;;;;;;5071151;28;20059;-69
2023/03/20 12:48:55;;;;;;;7.75;5.15;;;25.90;44.80;;;;;;5070118;28;20036;-68
2023/03/20 12:51:52;;;;;;;7.45;5.10;;;25.80;42.50;;;;;;5035330;28;20549;-70
2023/03/20 12:54:32;;;;;;;9.48;5.22;;;26.10;43.20;;;;;;5052146;28;20068;-71
2023/03/20 12:57:11;;;;;;;7.90;5.22;;;26.30;42.80;;;;;;5069361;28;20041;-69
2023/03/20 12:59:53;;;;;;;9.52;5.10;;;26.50;42.80;;;;;;5071514;28;20219;-69
2023/03/20 13:02:33;;;;;;;7.88;5.07;;;27.60;42.20;;;;;;5065184;28;20099;-73
2023/03/20 13:05:12;;;;;;;11.95;5.50;;;27.50;41.80;;;;;;5049184;28;20040;-73
2023/03/20 13:07:54;;;;;;;7.93;4.43;;;28.10;41.40;;;;;;5049086;28;20051;-71
2023/03/20 13:10:29;;;;;;;7.63;5.10;;;28.20;41.40;;;;;;5046242;28;20041;-72
2023/03/20 13:13:06;;;;;;;7.93;4.47;;;27.40;40.90;;;;;;5061546;28;20040;-71